createdAt,value
2019-06-10T00:01:23.516Z,95434.00
2019-06-10T00:03:53.936Z,95439.00
2019-06-10T00:06:24.343Z,95441.00
2019-06-10T00:08:55.951Z,95453.00
2019-06-10T00:11:26.534Z,95435.00
2019-06-10T00:13:56.933Z,95440.00
2019-06-10T00:16:27.369Z,95437.00
2019-06-10T00:18:57.985Z,95438.00
2019-06-10T00:21:30.770Z,95429.00
2019-06-10T00:24:02.623Z,95424.00
2019-06-10T00:26:32.952Z,95424.00
2019-06-10T00:29:05.759Z,95420.00
2019-06-10T00:31:35.515Z,95426.00
2019-06-10T00:34:06.625Z,95418.00
2019-06-10T00:36:38.211Z,95404.00
2019-06-10T00:39:13.177Z,95390.00
2019-06-10T00:41:42.794Z,95388.00
2019-06-10T00:44:13.548Z,95385.00
2019-06-10T00:46:44.003Z,95392.00
2019-06-10T00:49:14.878Z,95389.00
2019-06-10T00:51:45.673Z,95400.00
2019-06-10T00:54:16.083Z,95389.00
2019-06-10T00:56:46.550Z,95399.00
2019-06-10T00:59:16.990Z,95389.00
2019-06-10T01:01:47.409Z,95368.00
2019-06-10T01:04:17.811Z,95381.00
2019-06-10T01:06:48.269Z,95384.00
2019-06-10T01:09:18.661Z,95394.00
2019-06-10T01:11:51.639Z,95394.00
2019-06-10T01:14:21.701Z,95393.00
2019-06-10T01:16:52.211Z,95372.00
2019-06-10T01:19:22.579Z,95371.00
2019-06-10T01:21:53.037Z,95374.00
2019-06-10T01:24:23.456Z,95375.00
2019-06-10T01:26:53.959Z,95374.00
2019-06-10T01:29:24.363Z,95387.00
2019-06-10T01:31:54.825Z,95383.00
2019-06-10T01:34:25.203Z,95378.00
2019-06-10T01:36:55.649Z,95392.00
2019-06-10T01:39:26.067Z,95384.00
2019-06-10T01:41:56.501Z,95374.00
2019-06-10T01:44:26.933Z,95385.00
2019-06-10T01:46:57.427Z,95397.00
2019-06-10T01:49:27.809Z,95428.00
2019-06-10T01:51:58.240Z,95395.00
2019-06-10T01:54:28.647Z,95376.00
2019-06-10T01:57:01.347Z,95374.00
2019-06-10T01:59:31.356Z,95371.00
2019-06-10T02:02:05.729Z,95361.00
2019-06-10T02:04:36.141Z,95361.00
2019-06-10T02:07:06.548Z,95354.00
2019-06-10T02:09:36.929Z,95339.00
2019-06-10T02:12:07.389Z,95333.00
2019-06-10T02:14:37.813Z,95329.00
2019-06-10T02:17:09.721Z,95343.00
2019-06-10T02:19:41.424Z,95333.00
2019-06-10T02:22:14.961Z,95330.00
2019-06-10T02:24:44.311Z,95319.00
2019-06-10T02:27:15.969Z,95315.00
2019-06-10T02:29:46.815Z,95315.00
2019-06-10T02:32:22.507Z,95309.00
2019-06-10T02:35:03.618Z,95316.00
2019-06-10T02:37:25.542Z,95336.00
2019-06-10T02:39:54.361Z,95381.00
2019-06-10T02:42:34.818Z,95470.00
2019-06-10T02:45:03.782Z,95535.00
2019-06-10T02:47:37.934Z,95536.00
2019-06-10T02:50:09.342Z,95519.00
2019-06-10T02:52:39.945Z,95496.00
2019-06-10T02:55:14.045Z,95450.00
2019-06-10T02:57:45.013Z,95417.00
2019-06-10T03:00:23.430Z,95417.00
2019-06-10T03:02:48.942Z,95440.00
2019-06-10T03:05:21.443Z,95475.00
2019-06-10T03:07:53.270Z,95463.00
2019-06-10T03:10:30.188Z,95479.00
2019-06-10T03:12:56.162Z,95486.00
2019-06-10T03:15:26.876Z,95494.00
2019-06-10T03:17:58.342Z,95496.00
2019-06-10T03:20:28.797Z,95516.00
2019-06-10T03:22:59.282Z,95506.00
2019-06-10T03:25:29.754Z,95483.00
2019-06-10T03:28:00.148Z,95460.00
2019-06-10T03:30:47.170Z,95439.00
2019-06-10T03:33:05.069Z,95403.00
2019-06-10T03:35:35.090Z,95348.00
2019-06-10T03:38:05.611Z,95306.00
2019-06-10T03:40:36.076Z,95317.00
2019-06-10T03:43:06.460Z,95305.00
2019-06-10T03:45:36.897Z,95295.00
2019-06-10T03:48:07.299Z,95283.00
2019-06-10T03:50:37.729Z,95256.00
2019-06-10T03:53:08.165Z,95241.00
2019-06-10T03:55:38.736Z,95259.00
2019-06-10T03:58:09.117Z,95266.00
2019-06-10T04:00:39.630Z,95279.00
2019-06-10T04:03:12.019Z,95284.00
2019-06-10T04:05:42.456Z,95293.00
2019-06-10T04:08:13.220Z,95292.00
2019-06-10T04:10:43.672Z,95308.00
2019-06-10T04:13:14.077Z,95340.00
2019-06-10T04:15:44.559Z,95330.00
2019-06-10T04:18:14.978Z,95314.00
2019-06-10T04:20:45.367Z,95303.00
2019-06-10T04:23:15.792Z,95317.00
2019-06-10T04:25:46.184Z,95328.00
2019-06-10T04:28:17.770Z,95358.00
2019-06-10T04:30:48.400Z,95350.00
2019-06-10T04:33:18.896Z,95316.00
2019-06-10T04:35:51.879Z,95309.00
2019-06-10T04:38:23.383Z,95294.00
2019-06-10T04:40:53.868Z,95318.00
2019-06-10T04:43:26.012Z,95310.00
2019-06-10T04:45:56.443Z,95306.00
2019-06-10T04:48:28.102Z,95324.00
2019-06-10T04:50:59.038Z,95338.00
2019-06-10T04:53:29.521Z,95322.00
2019-06-10T04:55:59.937Z,95311.00
2019-06-10T04:58:33.061Z,95301.00
2019-06-10T05:01:03.326Z,95306.00
2019-06-10T05:03:33.887Z,95301.00
2019-06-10T05:06:04.354Z,95275.00
2019-06-10T05:08:34.733Z,95286.00
2019-06-10T05:11:05.608Z,95293.00
2019-06-10T05:13:36.020Z,95293.00
2019-06-10T05:16:06.864Z,95303.00
2019-06-10T05:18:37.277Z,95293.00
2019-06-10T05:21:07.733Z,95286.00
2019-06-10T05:23:38.232Z,95273.00
2019-06-10T05:26:08.669Z,95284.00
2019-06-10T05:28:39.060Z,95294.00
2019-06-10T05:31:09.580Z,95298.00
2019-06-10T05:33:42.362Z,95296.00
2019-06-10T05:36:13.246Z,95293.00
2019-06-10T05:38:44.270Z,95278.00
2019-06-10T05:41:14.705Z,95275.00
2019-06-10T05:43:45.473Z,95289.00
2019-06-10T05:46:16.486Z,95276.00
2019-06-10T05:48:46.870Z,95271.00
2019-06-10T05:51:17.343Z,95282.00
2019-06-10T05:53:47.773Z,95290.00
2019-06-10T05:56:18.265Z,95287.00
2019-06-10T05:58:48.763Z,95298.00
2019-06-10T06:01:19.383Z,95392.00
2019-06-10T06:03:52.691Z,95394.00
2019-06-10T06:06:22.920Z,95351.00
2019-06-10T06:08:57.894Z,95369.00
2019-06-10T06:11:29.325Z,95316.00
2019-06-10T06:14:02.535Z,95314.00
2019-06-10T06:16:34.816Z,95370.00
2019-06-10T06:19:06.775Z,95369.00
2019-06-10T06:21:42.831Z,95358.00
2019-06-10T06:24:09.680Z,95359.00
2019-06-10T06:26:43.337Z,95368.00
2019-06-10T06:29:14.273Z,95368.00
2019-06-10T06:31:44.733Z,95392.00
2019-06-10T06:34:15.475Z,95406.00
2019-06-10T06:36:45.878Z,95380.00
2019-06-10T06:39:16.325Z,95377.00
2019-06-10T06:41:46.669Z,95374.00
2019-06-10T06:44:17.815Z,95373.00
2019-06-10T06:46:48.269Z,95377.00
2019-06-10T06:49:18.857Z,95381.00
2019-06-10T06:52:34.675Z,95389.00
2019-06-10T06:54:53.012Z,95396.00
2019-06-10T06:57:34.181Z,95395.00
2019-06-10T07:00:38.301Z,95371.00
2019-06-10T07:03:47.701Z,95386.00
2019-06-10T07:06:19.995Z,95360.00
2019-06-10T07:09:03.820Z,95352.00
2019-06-10T07:11:24.287Z,95391.00
2019-06-10T07:13:56.783Z,95391.00
2019-06-10T07:16:27.207Z,95377.00
2019-06-10T07:18:57.618Z,95369.00
2019-06-10T07:21:29.158Z,95349.00
2019-06-10T07:23:59.632Z,95350.00
2019-06-10T07:26:32.592Z,95353.00
2019-06-10T07:29:02.927Z,95360.00
2019-06-10T07:31:36.128Z,95354.00
2019-06-10T07:34:06.764Z,95361.00
2019-06-10T07:36:37.183Z,95355.00
2019-06-10T07:39:09.351Z,95346.00
2019-06-10T07:41:41.321Z,95346.00
2019-06-10T07:44:12.453Z,95335.00
2019-06-10T07:46:45.193Z,95328.00
2019-06-10T07:49:15.360Z,95321.00
2019-06-10T07:51:46.611Z,95309.00
2019-06-10T07:54:17.389Z,95307.00
2019-06-10T07:56:50.579Z,95300.00
2019-06-10T07:59:20.023Z,95303.00
2019-06-10T08:01:54.294Z,95306.00
2019-06-10T08:04:22.752Z,95310.00
2019-06-10T08:06:53.286Z,95288.00
2019-06-10T08:09:23.729Z,95289.00
2019-06-10T08:11:54.178Z,95278.00
2019-06-10T08:14:24.742Z,95266.00
2019-06-10T08:16:56.970Z,95256.00
2019-06-10T08:19:34.946Z,95259.00
2019-06-10T08:21:59.689Z,95259.00
2019-06-10T08:24:32.896Z,95256.00
2019-06-10T08:27:03.843Z,95250.00
2019-06-10T08:29:34.377Z,95257.00
2019-06-10T08:32:04.883Z,95256.00
2019-06-10T08:34:35.959Z,95265.00
2019-06-10T08:37:06.708Z,95265.00
2019-06-10T08:39:38.240Z,95258.00
2019-06-10T08:42:08.826Z,95263.00
2019-06-10T08:44:39.350Z,95268.00
2019-06-10T08:47:12.282Z,95263.00
2019-06-10T08:49:45.520Z,95264.00
2019-06-10T08:52:14.454Z,95252.00
2019-06-10T08:54:47.757Z,95264.00
2019-06-10T08:57:17.176Z,95259.00
2019-06-10T08:59:49.044Z,95257.00
2019-06-10T09:02:19.810Z,95256.00
2019-06-10T09:04:53.567Z,95248.00
2019-06-10T09:07:23.769Z,95239.00
2019-06-10T09:09:54.447Z,95239.00
2019-06-10T09:12:33.015Z,95246.00
2019-06-10T09:14:58.700Z,95233.00
2019-06-10T09:17:29.311Z,95226.00
2019-06-10T09:19:59.815Z,95231.00
2019-06-10T09:22:32.580Z,95231.00
2019-06-10T09:25:03.007Z,95237.00
2019-06-10T09:27:33.682Z,95242.00
2019-06-10T09:30:07.196Z,95249.00
2019-06-10T09:32:45.868Z,95248.00
2019-06-10T09:35:12.627Z,95242.00
2019-06-10T09:37:48.459Z,95241.00
2019-06-10T09:40:24.019Z,95234.00
2019-06-10T09:42:55.568Z,95233.00
2019-06-10T09:45:26.030Z,95238.00
2019-06-10T09:47:59.984Z,95241.00
2019-06-10T09:50:51.277Z,95239.00
2019-06-10T09:53:30.129Z,95242.00
2019-06-10T09:55:55.738Z,95244.00
2019-06-10T09:58:28.890Z,95253.00
2019-06-10T10:01:04.980Z,95250.00
2019-06-10T10:03:38.015Z,95248.00
2019-06-10T10:06:15.054Z,95252.00
2019-06-10T10:08:46.020Z,95253.00
2019-06-10T10:11:16.901Z,95254.00
2019-06-10T10:13:49.465Z,95249.00
2019-06-10T10:16:19.544Z,95239.00
2019-06-10T10:19:00.133Z,95235.00
2019-06-10T10:21:26.406Z,95232.00
2019-06-10T10:24:06.875Z,95225.00
2019-06-10T10:26:28.906Z,95226.00
2019-06-10T10:29:13.090Z,95217.00
2019-06-10T10:31:47.400Z,95208.00
2019-06-10T10:34:23.605Z,95206.00
2019-06-10T10:36:56.608Z,95194.00
2019-06-10T10:39:46.651Z,95197.00
2019-06-10T10:42:17.283Z,95187.00
2019-06-10T10:44:51.914Z,95187.00
2019-06-10T10:47:27.807Z,95181.00
2019-06-10T10:49:58.639Z,95181.00
2019-06-10T10:52:33.019Z,95174.00
2019-06-10T10:55:06.806Z,95167.00
2019-06-10T10:57:35.951Z,95161.00
2019-06-10T11:00:09.265Z,95159.00
2019-06-10T11:02:42.750Z,95163.00
2019-06-10T11:05:41.451Z,95146.00
2019-06-10T11:08:13.607Z,95148.00
2019-06-10T11:10:47.466Z,95151.00
2019-06-10T11:13:18.774Z,95154.00
2019-06-10T11:15:49.307Z,95141.00
2019-06-10T11:18:22.631Z,95133.00
2019-06-10T11:20:51.972Z,95135.00
2019-06-10T11:23:23.761Z,95124.00
2019-06-10T11:25:57.044Z,95123.00
2019-06-10T11:28:26.395Z,95131.00
2019-06-10T11:30:58.586Z,95121.00
2019-06-10T11:33:32.859Z,95123.00
2019-06-10T11:36:04.557Z,95130.00
2019-06-10T11:38:39.937Z,95130.00
2019-06-10T11:41:13.848Z,95117.00
2019-06-10T11:43:44.400Z,95115.00
2019-06-10T11:46:14.851Z,95114.00
2019-06-10T11:48:45.419Z,95112.00
2019-06-10T11:51:16.041Z,95110.00
2019-06-10T11:53:49.950Z,95091.00
2019-06-10T11:56:22.310Z,95079.00
2019-06-10T11:58:56.270Z,95073.00
2019-06-10T12:01:25.222Z,95068.00
2019-06-10T12:03:58.834Z,95061.00
2019-06-10T12:06:27.910Z,95060.00
2019-06-10T12:09:02.794Z,95058.00
2019-06-10T12:11:31.895Z,95046.00
2019-06-10T12:14:04.458Z,95051.00
2019-06-10T12:19:08.311Z,95036.00
2019-06-10T12:21:38.913Z,95025.00
2019-06-10T12:24:09.380Z,95024.00
2019-06-10T12:26:43.242Z,95001.00
2019-06-10T12:29:12.580Z,94995.00
2019-06-10T12:31:43.139Z,94988.00
2019-06-10T12:34:13.604Z,94987.00
2019-06-10T12:36:43.999Z,94993.00
2019-06-10T12:39:17.193Z,94975.00
2019-06-10T12:41:46.844Z,94964.00
2019-06-10T12:44:57.194Z,94963.00
2019-06-10T12:47:27.708Z,94957.00
2019-06-10T12:49:59.125Z,94954.00
2019-06-10T12:52:29.729Z,94953.00
2019-06-10T12:55:01.045Z,94958.00
2019-06-10T12:57:32.946Z,94947.00
2019-06-10T13:00:15.788Z,94939.00
2019-06-10T13:02:36.520Z,94931.00
2019-06-10T13:05:12.068Z,94932.00
2019-06-10T13:07:43.866Z,94926.00
2019-06-10T13:10:42.974Z,94935.00
2019-06-10T13:13:12.880Z,94928.00
2019-06-10T13:15:43.817Z,94921.00
2019-06-10T13:18:19.324Z,94915.00
2019-06-10T13:20:46.633Z,94916.00
2019-06-10T13:23:25.394Z,94911.00
2019-06-10T13:25:55.492Z,94905.00
2019-06-10T13:28:22.407Z,94896.00
2019-06-10T13:30:54.620Z,94909.00
2019-06-10T13:33:25.461Z,94893.00
2019-06-10T13:35:56.822Z,94881.00
2019-06-10T13:38:29.204Z,94882.00
2019-06-10T13:40:59.722Z,94872.00
2019-06-10T13:43:33.039Z,94865.00
2019-06-10T13:46:05.229Z,94866.00
2019-06-10T13:48:35.142Z,94867.00
2019-06-10T13:51:09.138Z,94868.00
2019-06-10T13:53:37.970Z,94860.00
2019-06-10T13:56:32.106Z,94851.00
2019-06-10T13:58:46.118Z,94857.00
2019-06-10T14:01:21.566Z,94854.00
2019-06-10T14:03:46.826Z,94844.00
2019-06-10T14:06:35.869Z,94851.00
2019-06-10T14:08:54.572Z,94851.00
2019-06-10T14:11:26.220Z,94840.00
2019-06-10T14:13:54.210Z,94837.00
2019-06-10T14:16:24.902Z,94827.00
2019-06-10T14:18:55.468Z,94818.00
2019-06-10T14:21:26.551Z,94812.00
2019-06-10T14:23:57.057Z,94807.00
2019-06-10T14:26:39.962Z,94810.00
2019-06-10T14:28:59.825Z,94805.00
2019-06-10T14:31:42.904Z,94788.00
2019-06-10T14:34:04.931Z,94787.00
2019-06-10T14:36:34.933Z,94791.00
2019-06-10T14:39:08.124Z,94787.00
2019-06-10T14:41:38.991Z,94777.00
2019-06-10T14:44:11.488Z,94773.00
2019-06-10T14:46:43.310Z,94765.00
2019-06-10T14:49:16.607Z,94762.00
2019-06-10T14:51:46.757Z,94757.00
2019-06-10T14:54:18.275Z,94746.00
2019-06-10T14:56:53.677Z,94749.00
2019-06-10T14:59:22.421Z,94747.00
2019-06-10T15:01:54.456Z,94744.00
2019-06-10T15:04:25.029Z,94740.00
2019-06-10T15:06:55.586Z,94744.00
2019-06-10T15:09:26.501Z,94753.00
2019-06-10T15:11:57.247Z,94757.00
2019-06-10T15:14:27.973Z,94762.00
2019-06-10T15:16:58.586Z,94768.00
2019-06-10T15:19:29.362Z,94773.00
2019-06-10T15:21:59.879Z,94785.00
2019-06-10T15:24:30.355Z,94796.00
2019-06-10T15:27:10.088Z,94802.00
2019-06-10T15:29:33.227Z,94797.00
2019-06-10T15:32:14.099Z,94797.00
2019-06-10T15:34:35.989Z,94798.00
2019-06-10T15:37:06.499Z,94787.00
2019-06-10T15:39:37.087Z,94767.00
2019-06-10T15:42:09.389Z,94757.00
2019-06-10T15:44:51.359Z,94773.00
2019-06-10T15:47:16.085Z,94815.00
2019-06-10T15:49:46.585Z,94884.00
2019-06-10T15:52:19.115Z,94972.00
2019-06-10T15:54:49.586Z,94975.00
2019-06-10T15:57:36.607Z,94981.00
2019-06-10T15:59:54.120Z,95011.00
2019-06-10T16:02:25.614Z,94993.00
2019-06-10T16:04:56.477Z,95010.00
2019-06-10T16:07:26.980Z,95016.00
2019-06-10T16:09:57.497Z,95009.00
2019-06-10T16:12:28.006Z,94982.00
2019-06-10T16:14:58.510Z,94965.00
2019-06-10T16:17:33.118Z,94963.00
2019-06-10T16:20:03.816Z,94971.00
2019-06-10T16:22:34.443Z,95045.00
2019-06-10T16:25:05.229Z,95101.00
2019-06-10T16:27:47.120Z,95094.00
2019-06-10T16:30:09.773Z,95081.00
2019-06-10T16:32:40.439Z,95077.00
2019-06-10T16:35:13.086Z,95091.00
2019-06-10T16:37:45.335Z,95061.00
2019-06-10T16:40:17.137Z,94930.00
2019-06-10T16:42:47.682Z,94928.00
2019-06-10T16:45:21.317Z,94972.00
2019-06-10T16:47:53.036Z,94976.00
2019-06-10T16:50:25.682Z,95015.00
2019-06-10T16:52:55.454Z,95009.00
2019-06-10T16:55:27.246Z,95021.00
2019-06-10T16:57:59.706Z,95024.00
2019-06-10T17:00:31.525Z,95036.00
2019-06-10T17:03:02.270Z,95043.00
2019-06-10T17:05:33.203Z,95055.00
2019-06-10T17:08:03.837Z,95063.00
2019-06-10T17:10:34.632Z,95060.00
2019-06-10T17:13:07.370Z,95051.00
2019-06-10T17:15:42.332Z,95043.00
2019-06-10T17:18:14.870Z,95032.00
2019-06-10T17:20:45.498Z,95032.00
2019-06-10T17:23:26.435Z,95009.00
2019-06-10T17:25:57.072Z,95000.00
2019-06-10T17:28:31.725Z,95006.00
2019-06-10T17:31:00.522Z,94996.00
2019-06-10T17:33:34.671Z,95001.00
2019-06-10T17:36:03.731Z,94998.00
2019-06-10T17:38:34.533Z,94999.00
2019-06-10T17:41:05.058Z,94999.00
2019-06-10T17:43:35.683Z,94990.00
2019-06-10T17:46:08.205Z,94988.00
2019-06-10T17:48:38.841Z,94997.00
2019-06-10T17:51:13.070Z,94990.00
2019-06-10T17:53:43.612Z,94990.00
2019-06-10T17:56:14.107Z,94989.00
2019-06-10T17:58:53.804Z,94979.00
2019-06-10T18:01:17.560Z,94982.00
2019-06-10T18:03:48.481Z,94990.00
2019-06-10T18:06:19.622Z,95000.00
2019-06-10T18:08:52.718Z,95002.00
2019-06-10T18:11:34.121Z,95011.00
2019-06-10T18:14:04.934Z,95014.00
2019-06-10T18:16:36.709Z,95020.00
2019-06-10T18:19:07.773Z,95018.00
2019-06-10T18:21:41.332Z,95025.00
2019-06-10T18:24:12.736Z,95033.00
2019-06-10T18:26:43.854Z,95018.00
2019-06-10T18:29:15.398Z,95018.00
2019-06-10T18:31:45.968Z,95023.00
2019-06-10T18:34:16.468Z,95022.00
2019-06-10T18:36:48.720Z,95011.00
2019-06-10T18:39:22.806Z,95011.00
2019-06-10T18:41:53.103Z,95011.00
2019-06-10T18:44:26.441Z,95010.00
2019-06-10T18:46:55.824Z,95007.00
2019-06-10T18:49:30.040Z,95008.00
2019-06-10T18:52:00.963Z,95008.00
2019-06-10T18:54:33.851Z,95012.00
2019-06-10T18:57:04.037Z,95017.00
2019-06-10T18:59:36.652Z,95020.00
2019-06-10T19:02:07.095Z,95024.00
2019-06-10T19:04:38.723Z,95019.00
2019-06-10T19:07:10.089Z,95019.00
2019-06-10T19:09:47.599Z,95013.00
2019-06-10T19:12:13.535Z,95017.00
2019-06-10T19:14:52.162Z,95008.00
2019-06-10T19:17:23.164Z,95008.00
2019-06-10T19:19:54.096Z,95010.00
2019-06-10T19:22:24.911Z,95011.00
2019-06-10T19:24:55.628Z,95016.00
2019-06-10T19:27:26.220Z,95028.00
2019-06-10T19:29:56.895Z,95022.00
2019-06-10T19:32:27.600Z,95016.00
2019-06-10T19:35:02.691Z,95013.00
2019-06-10T19:37:35.411Z,95010.00
2019-06-10T19:40:06.334Z,95010.00
2019-06-10T19:42:38.489Z,95007.00
2019-06-10T19:45:12.351Z,94996.00
2019-06-10T19:47:45.594Z,94989.00
2019-06-10T19:50:15.446Z,94985.00
2019-06-10T19:52:46.089Z,94976.00
2019-06-10T19:55:16.993Z,94974.00
2019-06-10T19:57:47.828Z,94974.00
2019-06-10T20:00:24.004Z,94973.00
2019-06-10T20:02:54.669Z,94971.00
2019-06-10T20:05:25.668Z,94969.00
2019-06-10T20:07:56.302Z,94972.00
2019-06-10T20:10:27.495Z,94962.00
2019-06-10T20:12:58.253Z,94961.00
2019-06-10T20:15:28.987Z,94961.00
2019-06-10T20:17:59.963Z,94965.00
2019-06-10T20:20:33.117Z,94963.00
2019-06-10T20:23:03.326Z,94945.00
2019-06-10T20:25:36.908Z,94927.00
2019-06-10T20:28:08.925Z,94924.00
2019-06-10T20:30:43.342Z,94911.00
2019-06-10T20:33:35.891Z,94918.00
2019-06-10T20:36:07.598Z,94903.00
2019-06-10T20:38:37.770Z,94903.00
2019-06-10T20:41:08.835Z,94903.00
2019-06-10T20:43:39.398Z,94896.00
2019-06-10T20:46:12.797Z,94890.00
2019-06-10T20:48:45.450Z,94889.00
2019-06-10T20:51:14.885Z,94884.00
2019-06-10T20:53:48.001Z,94893.00
2019-06-10T20:56:20.431Z,94896.00
2019-06-10T20:58:52.465Z,94873.00
2019-06-10T21:01:25.434Z,94885.00
2019-06-10T21:03:56.260Z,94875.00
2019-06-10T21:06:28.152Z,94863.00
2019-06-10T21:09:00.081Z,94870.00
2019-06-10T21:11:32.218Z,94868.00
2019-06-10T21:14:03.278Z,94877.00
2019-06-10T21:16:34.521Z,94867.00
2019-06-10T21:19:07.164Z,94867.00
2019-06-10T21:21:37.807Z,94864.00
2019-06-10T21:24:08.355Z,94861.00
2019-06-10T21:26:38.888Z,94871.00
2019-06-10T21:29:12.749Z,94867.00
2019-06-10T21:31:45.755Z,94858.00
2019-06-10T21:34:15.964Z,94872.00
2019-06-10T21:36:54.010Z,94861.00
2019-06-10T21:39:22.881Z,94843.00
2019-06-10T21:41:54.583Z,94842.00
2019-06-10T21:44:25.305Z,94847.00
2019-06-10T21:46:55.808Z,94848.00
2019-06-10T21:49:26.269Z,94839.00
2019-06-10T21:51:57.339Z,94839.00
2019-06-10T21:54:27.885Z,94848.00
2019-06-10T21:56:58.462Z,94849.00
2019-06-10T21:59:28.948Z,94850.00
2019-06-10T22:01:59.438Z,94854.00
2019-06-10T22:04:32.506Z,94852.00
2019-06-10T22:07:03.160Z,94859.00
2019-06-10T22:09:34.016Z,94864.00
2019-06-10T22:12:04.546Z,94863.00
2019-06-10T22:14:35.088Z,94868.00
2019-06-10T22:17:05.796Z,94883.00
2019-06-10T22:19:36.306Z,94899.00
2019-06-10T22:22:07.163Z,94897.00
2019-06-10T22:24:37.612Z,94899.00
2019-06-10T22:27:08.942Z,94903.00
2019-06-10T22:29:39.430Z,94911.00
2019-06-10T22:32:09.984Z,94906.00
2019-06-10T22:34:42.151Z,94908.00
2019-06-10T22:37:12.856Z,94900.00
2019-06-10T22:39:45.656Z,94901.00
2019-06-10T22:42:16.210Z,94915.00
2019-06-10T22:44:47.371Z,94904.00
2019-06-10T22:47:17.973Z,94894.00
2019-06-10T22:49:48.453Z,94900.00
2019-06-10T22:52:19.259Z,94904.00
2019-06-10T22:54:55.152Z,94910.00
2019-06-10T22:57:24.545Z,94911.00
2019-06-10T22:59:56.532Z,94902.00
2019-06-10T23:02:27.336Z,94907.00
2019-06-10T23:04:59.917Z,94896.00
2019-06-10T23:07:30.114Z,94881.00
2019-06-10T23:10:03.060Z,94877.00
2019-06-10T23:12:32.890Z,94877.00
2019-06-10T23:15:03.378Z,94882.00
2019-06-10T23:17:33.998Z,94874.00
2019-06-10T23:20:04.835Z,94876.00
2019-06-10T23:22:35.343Z,94874.00
2019-06-10T23:25:06.070Z,94885.00
2019-06-10T23:27:36.559Z,94896.00
2019-06-10T23:30:11.723Z,94893.00
2019-06-10T23:32:42.128Z,94904.00
2019-06-10T23:35:12.445Z,94910.00
2019-06-10T23:37:43.070Z,94915.00
2019-06-10T23:40:13.608Z,94909.00
2019-06-10T23:42:44.087Z,94901.00
2019-06-10T23:45:14.564Z,94888.00
2019-06-10T23:47:45.041Z,94880.00
2019-06-10T23:50:15.512Z,94878.00
2019-06-10T23:52:45.964Z,94885.00
2019-06-10T23:55:16.526Z,94890.00
2019-06-10T23:57:47.190Z,94897.00
